Time;durP1;ratioP1;P1;durP2;ratioP2;P2;SDS_P1;SDS_P2;PMS_P1;PMS_P2;Temp;Humidity;BMP_temperature;BMP_pressure;BME280_temperature;BME280_humidity;BME280_pressure;Samples;Min_cycle;Max_cycle;Signal;HPM_P1;HPM_P2
2023/01/09 00:01:34;;;;;;;144.35;56.35;;;;;;;;;;6238555;28;20065;-62
2023/01/09 00:04:36;;;;;;;157.75;61.58;;;;;;;;;;6236650;28;20065;-61
2023/01/09 00:07:36;;;;;;;155.52;61.97;;;;;;;;;;6232960;28;20527;-62
2023/01/09 00:10:38;;;;;;;159.97;64.23;;;;;;;;;;6241490;28;20037;-62
2023/01/09 00:13:38;;;;;;;144.68;59.22;;;;;;;;;;6244105;28;20072;-60
2023/01/09 00:16:39;;;;;;;152.45;60.08;;;;;;;;;;6247256;28;20503;-62
2023/01/09 00:19:39;;;;;;;148.68;60.50;;;;;;;;;;6256610;28;20071;-62
2023/01/09 00:22:40;;;;;;;155.25;60.40;;;;;;;;;;6262676;28;20104;-61
2023/01/09 00:25:41;;;;;;;147.07;60.28;;;;;;;;;;6256891;28;20059;-60
2023/01/09 00:28:41;;;;;;;134.10;57.13;;;;;;;;;;6260113;28;20043;-60
2023/01/09 00:31:42;;;;;;;142.73;58.15;;;;;;;;;;6261425;28;20099;-63
2023/01/09 00:34:42;;;;;;;145.90;58.40;;;;;;;;;;6267458;28;20138;-62
2023/01/09 00:37:43;;;;;;;142.63;59.00;;;;;;;;;;6264450;28;20049;-62
2023/01/09 00:40:44;;;;;;;142.35;59.35;;;;;;;;;;6267554;28;20045;-62
2023/01/09 00:43:50;;;;;;;145.20;59.08;;;;;;;;;;6269959;28;20052;-62
2023/01/09 00:47:13;;;;;;;137.60;59.17;;;;;;;;;;6245503;28;20049;-62
2023/01/09 00:50:15;;;;;;;;;;;;;;;;;;6250379;28;20076;-61
2023/01/09 00:53:18;;;;;;;141.68;57.08;;;;;;;;;;6264343;28;19931;-61
2023/01/09 00:56:21;;;;;;;145.48;60.40;;;;;;;;;;6269506;28;20048;-61
2023/01/09 00:59:22;;;;;;;164.70;68.20;;;;;;;;;;6268797;28;20045;-61
2023/01/09 01:02:22;;;;;;;140.27;59.42;;;;;;;;;;6241237;28;20112;-62
2023/01/09 01:08:44;;;;;;;147.30;59.08;;;;;;;;;;6243307;28;20115;-62
2023/01/09 01:11:45;;;;;;;;;;;;;;;;;;6243798;28;20048;-61
2023/01/09 01:14:45;;;;;;;135.35;56.22;;;;;;;;;;6246541;28;19925;-62
2023/01/09 01:17:46;;;;;;;127.75;55.45;;;;;;;;;;6242258;28;20116;-61
2023/01/09 01:20:46;;;;;;;136.30;56.53;;;;;;;;;;6243591;28;20400;-61
2023/01/09 01:23:47;;;;;;;146.20;59.63;;;;;;;;;;6239631;28;20488;-61
2023/01/09 01:26:47;;;;;;;140.48;59.22;;;;;;;;;;6248951;28;20415;-61
2023/01/09 01:29:48;;;;;;;139.50;55.58;;;;;;;;;;6243641;28;20149;-61
2023/01/09 01:32:49;;;;;;;128.48;55.33;;;;;;;;;;6241864;28;20041;-61
2023/01/09 01:35:50;;;;;;;137.48;56.58;;;;;;;;;;6252030;28;20050;-60
2023/01/09 01:38:50;;;;;;;139.45;56.97;;;;;;;;;;6246168;28;20045;-61
2023/01/09 01:41:51;;;;;;;130.65;56.28;;;;;;;;;;6242681;28;20090;-61
2023/01/09 01:45:22;;;;;;;137.02;56.35;;;;;;;;;;6243896;28;20041;-61
2023/01/09 01:48:28;;;;;;;131.98;54.05;;;;;;;;;;6248563;28;20045;-61
2023/01/09 01:51:31;;;;;;;140.40;58.78;;;;;;;;;;6245310;28;20448;-61
2023/01/09 01:54:32;;;;;;;134.32;56.42;;;;;;;;;;6240031;28;20044;-61
2023/01/09 01:57:34;;;;;;;145.93;59.88;;;;;;;;;;6240170;28;20523;-62
2023/01/09 02:00:39;;;;;;;149.88;60.92;;;;;;;;;;6246998;28;20060;-62
2023/01/09 02:03:41;;;;;;;146.48;58.28;;;;;;;;;;6244350;28;20056;-62
2023/01/09 02:06:47;;;;;;;133.18;56.85;;;;;;;;;;6251227;28;20050;-62
2023/01/09 02:09:47;;;;;;;147.48;61.25;;;;;;;;;;6244801;28;20141;-63
2023/01/09 02:12:49;;;;;;;128.38;50.60;;;;;;;;;;6244448;28;20128;-61
2023/01/09 02:16:22;;;;;;;123.15;49.42;;;;;;;;;;6243150;28;20546;-62
2023/01/09 02:19:48;;;;;;;111.72;44.15;;;;;;;;;;6239174;28;20053;-62
2023/01/09 02:23:10;;;;;;;122.03;48.35;;;;;;;;;;6239981;28;20815;-61
2023/01/09 02:26:41;;;;;;;130.45;51.83;;;;;;;;;;6240997;28;20555;-60
2023/01/09 02:30:15;;;;;;;134.43;54.33;;;;;;;;;;6243210;28;20044;-62
2023/01/09 02:33:23;;;;;;;138.90;52.42;;;;;;;;;;6238028;28;20065;-61
2023/01/09 02:36:32;;;;;;;138.13;54.25;;;;;;;;;;6241227;28;20048;-62
2023/01/09 02:39:42;;;;;;;141.00;57.08;;;;;;;;;;6242366;28;20049;-61
2023/01/09 02:42:44;;;;;;;132.77;54.88;;;;;;;;;;6248702;28;20048;-60
2023/01/09 02:45:45;;;;;;;142.15;57.60;;;;;;;;;;6240879;28;20049;-61
2023/01/09 02:48:50;;;;;;;166.00;68.57;;;;;;;;;;6242839;28;20404;-61
2023/01/09 02:51:53;;;;;;;161.15;71.18;;;;;;;;;;6242479;28;20075;-61
2023/01/09 02:55:44;;;;;;;169.25;73.05;;;;;;;;;;6245161;28;20095;-61
2023/01/09 02:59:09;;;;;;;186.07;82.15;;;;;;;;;;6208644;28;20050;-61
2023/01/09 03:02:33;;;;;;;162.90;69.10;;;;;;;;;;6243653;28;20510;-63
2023/01/09 03:05:43;;;;;;;150.85;62.72;;;;;;;;;;6244093;28;20120;-63
2023/01/09 03:08:51;;;;;;;125.50;51.13;;;;;;;;;;6240980;28;20140;-62
2023/01/09 03:11:58;;;;;;;140.73;55.35;;;;;;;;;;6240996;28;20411;-61
2023/01/09 03:15:01;;;;;;;131.90;54.05;;;;;;;;;;6244983;28;20506;-62
2023/01/09 03:18:06;;;;;;;138.07;54.78;;;;;;;;;;6241100;28;20073;-61
2023/01/09 03:21:08;;;;;;;144.88;57.63;;;;;;;;;;6249697;28;20064;-60
2023/01/09 03:24:09;;;;;;;;;;;;;;;;;;6236376;28;20451;-62
2023/01/09 03:27:10;;;;;;;154.77;63.38;;;;;;;;;;6239938;28;19931;-62
2023/01/09 03:30:11;;;;;;;146.63;61.15;;;;;;;;;;6241427;28;20053;-62
2023/01/09 03:33:11;;;;;;;144.10;57.85;;;;;;;;;;6236948;28;20156;-62
2023/01/09 03:36:13;;;;;;;152.95;62.65;;;;;;;;;;6242471;28;20065;-61
2023/01/09 03:39:14;;;;;;;144.32;61.33;;;;;;;;;;6232154;28;20110;-60
2023/01/09 03:42:15;;;;;;;143.55;62.33;;;;;;;;;;6242052;28;20114;-62
2023/01/09 03:45:15;;;;;;;131.90;56.58;;;;;;;;;;6246051;28;20064;-62
2023/01/09 03:48:16;;;;;;;137.15;58.33;;;;;;;;;;6252111;28;20638;-61
2023/01/09 03:51:16;;;;;;;136.32;56.65;;;;;;;;;;6257460;28;20053;-61
2023/01/09 03:54:17;;;;;;;127.10;55.83;;;;;;;;;;6253612;28;20072;-63
2023/01/09 03:57:18;;;;;;;124.05;51.13;;;;;;;;;;6247504;28;21096;-62
2023/01/09 04:00:20;;;;;;;128.73;52.83;;;;;;;;;;6254940;28;20041;-61
2023/01/09 04:03:21;;;;;;;115.90;46.97;;;;;;;;;;6246321;28;20052;-62
2023/01/09 04:06:22;;;;;;;144.45;55.53;;;;;;;;;;6246542;28;20045;-60
2023/01/09 04:09:22;;;;;;;139.93;54.85;;;;;;;;;;6253012;28;20049;-62
2023/01/09 04:12:23;;;;;;;146.25;56.50;;;;;;;;;;6266901;28;20152;-62
2023/01/09 04:15:24;;;;;;;135.18;54.65;;;;;;;;;;6244737;28;20498;-62
2023/01/09 04:18:24;;;;;;;142.05;55.92;;;;;;;;;;6242812;28;20111;-60
2023/01/09 04:21:25;;;;;;;137.77;55.50;;;;;;;;;;6245692;28;20041;-62
2023/01/09 04:24:27;;;;;;;161.23;69.78;;;;;;;;;;6245845;28;20103;-62
2023/01/09 04:27:28;;;;;;;149.38;59.78;;;;;;;;;;6248727;28;20045;-63
2023/01/09 04:30:29;;;;;;;148.10;60.00;;;;;;;;;;6241849;28;20077;-61
2023/01/09 04:33:29;;;;;;;143.45;55.90;;;;;;;;;;6243872;28;20538;-63
2023/01/09 04:36:33;;;;;;;137.07;54.13;;;;;;;;;;6245883;28;20048;-62
2023/01/09 04:39:33;;;;;;;141.50;55.90;;;;;;;;;;6244413;28;20087;-62
2023/01/09 04:42:34;;;;;;;134.02;52.28;;;;;;;;;;6245507;28;20136;-61
2023/01/09 04:45:35;;;;;;;140.43;53.42;;;;;;;;;;6246207;28;20107;-61
2023/01/09 04:48:36;;;;;;;136.38;53.50;;;;;;;;;;6264422;28;20502;-62
2023/01/09 04:51:36;;;;;;;140.45;54.47;;;;;;;;;;6257778;28;20054;-60
2023/01/09 04:54:38;;;;;;;136.50;55.10;;;;;;;;;;6240856;28;20049;-61
2023/01/09 04:57:38;;;;;;;135.52;54.45;;;;;;;;;;6249648;28;20072;-61
2023/01/09 05:00:39;;;;;;;131.90;51.85;;;;;;;;;;6250284;28;20073;-60
2023/01/09 05:03:39;;;;;;;136.32;55.65;;;;;;;;;;6244706;28;20046;-62
2023/01/09 05:06:40;;;;;;;135.48;53.78;;;;;;;;;;6244065;28;20048;-62
2023/01/09 05:09:41;;;;;;;121.45;49.70;;;;;;;;;;6244088;28;20041;-61
2023/01/09 05:12:42;;;;;;;122.07;51.63;;;;;;;;;;6244810;28;20053;-61
2023/01/09 05:15:42;;;;;;;132.95;52.03;;;;;;;;;;6254614;28;20052;-60
2023/01/09 05:18:43;;;;;;;143.30;55.00;;;;;;;;;;6244268;28;20077;-63
2023/01/09 05:21:44;;;;;;;132.23;51.70;;;;;;;;;;6242801;28;20045;-62
2023/01/09 05:24:44;;;;;;;138.63;54.88;;;;;;;;;;6251337;28;20116;-60
2023/01/09 05:27:45;;;;;;;136.05;57.10;;;;;;;;;;6264437;28;20468;-62
2023/01/09 05:30:46;;;;;;;138.52;56.40;;;;;;;;;;6255807;28;20059;-60
2023/01/09 05:33:47;;;;;;;144.83;57.67;;;;;;;;;;6244692;28;20076;-60
2023/01/09 05:36:48;;;;;;;141.65;58.17;;;;;;;;;;6244198;28;20061;-61
2023/01/09 05:39:48;;;;;;;138.15;53.67;;;;;;;;;;6245914;28;20045;-61
2023/01/09 05:42:49;;;;;;;134.63;55.13;;;;;;;;;;6262196;28;20065;-61
2023/01/09 05:45:49;;;;;;;132.23;53.13;;;;;;;;;;6251218;28;20060;-62
2023/01/09 05:48:50;;;;;;;142.23;58.33;;;;;;;;;;6253611;28;20099;-60
2023/01/09 05:51:50;;;;;;;133.63;55.08;;;;;;;;;;6251653;28;20095;-60
2023/01/09 05:54:51;;;;;;;129.00;53.33;;;;;;;;;;6261523;28;20132;-62
2023/01/09 05:57:52;;;;;;;129.77;50.30;;;;;;;;;;6252599;28;20045;-62
2023/01/09 06:00:53;;;;;;;136.90;56.78;;;;;;;;;;6238081;28;20084;-61
2023/01/09 06:03:53;;;;;;;130.07;54.42;;;;;;;;;;6243136;28;20439;-62
2023/01/09 06:06:55;;;;;;;125.07;50.25;;;;;;;;;;6242313;28;20080;-62
2023/01/09 06:09:55;;;;;;;128.85;49.65;;;;;;;;;;6240729;28;20527;-62
2023/01/09 06:12:56;;;;;;;122.65;49.40;;;;;;;;;;6242094;28;20030;-62
2023/01/09 06:15:57;;;;;;;116.15;49.65;;;;;;;;;;6256800;28;20488;-62
2023/01/09 06:18:57;;;;;;;126.75;50.90;;;;;;;;;;6264132;28;20140;-61
2023/01/09 06:21:58;;;;;;;129.05;54.58;;;;;;;;;;6267047;28;20044;-60
2023/01/09 06:24:58;;;;;;;119.45;48.97;;;;;;;;;;6265868;28;20053;-60
2023/01/09 06:27:59;;;;;;;119.15;49.85;;;;;;;;;;6266670;28;20036;-60
2023/01/09 06:31:00;;;;;;;115.35;49.70;;;;;;;;;;6264997;28;20079;-60
2023/01/09 06:34:00;;;;;;;113.60;49.63;;;;;;;;;;6265559;28;20048;-61
2023/01/09 06:37:01;;;;;;;124.70;52.72;;;;;;;;;;6265581;28;20129;-61
2023/01/09 06:40:01;;;;;;;130.68;58.85;;;;;;;;;;6263697;28;20049;-62
2023/01/09 06:43:02;;;;;;;130.95;57.95;;;;;;;;;;6267192;28;20094;-62
2023/01/09 06:46:04;;;;;;;119.07;49.80;;;;;;;;;;6265034;28;20481;-60
2023/01/09 06:49:05;;;;;;;115.32;47.05;;;;;;;;;;6262608;28;20876;-62
2023/01/09 06:52:06;;;;;;;114.18;48.88;;;;;;;;;;6244700;28;20045;-62
2023/01/09 06:55:07;;;;;;;125.88;51.33;;;;;;;;;;6247923;28;20128;-61
2023/01/09 06:58:09;;;;;;;114.63;48.95;;;;;;;;;;6243088;28;20061;-62
2023/01/09 07:01:10;;;;;;;118.63;50.78;;;;;;;;;;6240834;28;20049;-62
2023/01/09 07:04:10;;;;;;;127.60;51.67;;;;;;;;;;6243226;28;20057;-61
2023/01/09 07:07:11;;;;;;;120.90;49.30;;;;;;;;;;6243640;28;20049;-61
2023/01/09 07:10:13;;;;;;;129.65;52.92;;;;;;;;;;6239809;28;20183;-62
2023/01/09 07:13:13;;;;;;;132.63;52.90;;;;;;;;;;6260378;28;20049;-62
2023/01/09 07:16:14;;;;;;;117.10;49.85;;;;;;;;;;6240811;28;20511;-62
2023/01/09 07:19:15;;;;;;;119.45;50.53;;;;;;;;;;6255410;28;20447;-60
2023/01/09 07:22:16;;;;;;;126.15;52.15;;;;;;;;;;6246209;28;20044;-63
2023/01/09 07:25:17;;;;;;;129.73;55.10;;;;;;;;;;6247960;28;20044;-60
2023/01/09 07:28:17;;;;;;;137.57;57.00;;;;;;;;;;6244045;28;20132;-61
2023/01/09 07:31:18;;;;;;;128.65;55.33;;;;;;;;;;6244556;28;20518;-61
2023/01/09 07:34:18;;;;;;;136.32;59.00;;;;;;;;;;6247743;28;20041;-60
2023/01/09 07:37:19;;;;;;;138.43;60.25;;;;;;;;;;6247208;28;20040;-60
2023/01/09 07:40:19;;;;;;;154.68;64.97;;;;;;;;;;6244722;28;20045;-61
2023/01/09 07:43:20;;;;;;;134.85;59.10;;;;;;;;;;6245206;28;20053;-60
2023/01/09 07:46:21;;;;;;;129.27;56.22;;;;;;;;;;6247400;28;20060;-60
2023/01/09 07:49:22;;;;;;;122.28;49.47;;;;;;;;;;6652416;22;20088;-63
2023/01/09 07:52:22;;;;;;;133.30;55.65;;;;;;;;;;6202074;28;20049;-62
2023/01/09 07:55:23;;;;;;;153.13;64.35;;;;;;;;;;6217313;28;20125;-63
2023/01/09 07:58:23;;;;;;;156.57;62.17;;;;;;;;;;6202823;28;20046;-63
2023/01/09 08:01:24;;;;;;;156.23;69.15;;;;;;;;;;6200635;28;20132;-63
2023/01/09 08:04:25;;;;;;;152.82;67.80;;;;;;;;;;6184708;28;20480;-62
2023/01/09 08:07:25;;;;;;;161.02;69.70;;;;;;;;;;6202657;28;20492;-63
2023/01/09 08:10:26;;;;;;;140.85;60.25;;;;;;;;;;6202632;28;20046;-62
2023/01/09 08:13:27;;;;;;;130.05;55.78;;;;;;;;;;6204726;28;21044;-62
2023/01/09 08:16:28;;;;;;;128.43;59.92;;;;;;;;;;6207640;28;20129;-64
2023/01/09 08:19:28;;;;;;;120.03;53.70;;;;;;;;;;6202793;28;20046;-61
2023/01/09 08:22:29;;;;;;;112.10;48.90;;;;;;;;;;6200991;28;20141;-62
2023/01/09 08:25:29;;;;;;;120.28;50.35;;;;;;;;;;6203418;28;20468;-63
2023/01/09 08:28:30;;;;;;;119.15;48.60;;;;;;;;;;6199308;28;20149;-62
2023/01/09 08:31:31;;;;;;;141.13;54.45;;;;;;;;;;6202753;28;20713;-62
2023/01/09 08:34:31;;;;;;;132.18;52.83;;;;;;;;;;6203744;28;20424;-62
2023/01/09 08:37:32;;;;;;;125.60;50.03;;;;;;;;;;6206554;28;20044;-62
2023/01/09 08:40:34;;;;;;;123.05;47.55;;;;;;;;;;6221025;28;20483;-61
2023/01/09 08:47:05;;;;;;;141.13;63.22;;;;;;;;;;6207003;28;20404;-62
2023/01/09 08:50:06;;;;;;;;;;;;;;;;;;6214527;28;20062;-64
2023/01/09 08:53:07;;;;;;;128.05;53.03;;;;;;;;;;6217745;28;19921;-62
2023/01/09 08:56:07;;;;;;;129.70;56.03;;;;;;;;;;6205085;28;20071;-62
2023/01/09 08:59:09;;;;;;;133.90;56.20;;;;;;;;;;6201573;28;20408;-61
2023/01/09 09:02:10;;;;;;;128.20;56.88;;;;;;;;;;6197877;28;20045;-61
2023/01/09 09:05:10;;;;;;;126.00;53.72;;;;;;;;;;6198120;28;20569;-64
2023/01/09 09:08:11;;;;;;;128.85;55.92;;;;;;;;;;6197563;28;20050;-61
2023/01/09 09:11:12;;;;;;;219.00;86.28;;;;;;;;;;6197915;28;20050;-64
2023/01/09 09:17:32;;;;;;;161.43;68.43;;;;;;;;;;6208113;28;20049;-62
2023/01/09 09:20:36;;;;;;;139.02;58.13;;;;;;;;;;6199750;28;20046;-63
2023/01/09 09:23:36;;;;;;;118.40;49.55;;;;;;;;;;6208067;28;20464;-61
2023/01/09 09:26:37;;;;;;;116.90;53.13;;;;;;;;;;6203118;28;20442;-62
2023/01/09 09:29:38;;;;;;;115.95;49.45;;;;;;;;;;6198850;28;20128;-61
2023/01/09 09:32:39;;;;;;;100.68;44.83;;;;;;;;;;6201579;28;20547;-62
2023/01/09 09:35:40;;;;;;;94.95;43.05;;;;;;;;;;6199335;28;20412;-63
2023/01/09 09:38:40;;;;;;;116.07;49.33;;;;;;;;;;6199294;28;20053;-62
2023/01/09 09:46:05;;;;;;;115.18;48.15;;;;;;;;;;6198090;28;20065;-62
2023/01/09 09:49:13;;;;;;;115.78;48.17;;;;;;;;;;6200462;28;20047;-63
2023/01/09 09:52:24;;;;;;;111.63;47.65;;;;;;;;;;6199649;28;20054;-61
2023/01/09 09:55:38;;;;;;;124.13;51.50;;;;;;;;;;6200494;28;20061;-63
2023/01/09 09:58:57;;;;;;;142.40;62.35;;;;;;;;;;6199249;28;20054;-61
2023/01/09 10:02:05;;;;;;;142.05;57.10;;;;;;;;;;6198782;28;20044;-63
2023/01/09 10:05:23;;;;;;;142.57;59.95;;;;;;;;;;6198047;28;20512;-62
2023/01/09 10:08:42;;;;;;;138.32;55.33;;;;;;;;;;6199277;28;20056;-61
2023/01/09 10:12:04;;;;;;;134.82;57.60;;;;;;;;;;6213299;28;20103;-63
2023/01/09 10:15:38;;;;;;;142.63;59.20;;;;;;;;;;6205368;28;20096;-64
2023/01/09 10:18:57;;;;;;;124.05;55.15;;;;;;;;;;6201210;28;20046;-63
2023/01/09 10:22:20;;;;;;;121.32;50.25;;;;;;;;;;6198364;28;20499;-61
2023/01/09 10:25:26;;;;;;;84.13;37.33;;;;;;;;;;6199799;28;20061;-61
2023/01/09 10:29:04;;;;;;;57.65;29.00;;;;;;;;;;6207631;28;20046;-62
2023/01/09 10:32:19;;;;;;;38.75;19.20;;;;;;;;;;6218590;28;20054;-63
2023/01/09 10:35:28;;;;;;;31.40;16.80;;;;;;;;;;6219562;28;20045;-64
2023/01/09 10:38:33;;;;;;;27.85;12.55;;;;;;;;;;6219436;28;20049;-62
2023/01/09 10:41:38;;;;;;;25.67;12.93;;;;;;;;;;6218724;28;20045;-61
2023/01/09 10:44:47;;;;;;;20.80;10.10;;;;;;;;;;6219941;28;20049;-63
2023/01/09 10:47:48;;;;;;;19.27;9.48;;;;;;;;;;6219978;28;20052;-62
2023/01/09 10:50:51;;;;;;;33.45;16.08;;;;;;;;;;6217839;28;20459;-63
2023/01/09 10:53:54;;;;;;;18.30;8.40;;;;;;;;;;6207986;28;20053;-64
2023/01/09 10:57:01;;;;;;;16.70;9.10;;;;;;;;;;6211394;28;20046;-62
2023/01/09 11:00:03;;;;;;;13.77;7.90;;;;;;;;;;6211096;28;20049;-62
2023/01/09 11:03:03;;;;;;;14.68;7.25;;;;;;;;;;6199294;28;20404;-62
2023/01/09 11:06:21;;;;;;;13.65;6.32;;;;;;;;;;6200921;28;20052;-63
2023/01/09 11:09:22;;;;;;;23.35;12.75;;;;;;;;;;6197078;28;20559;-63
2023/01/09 11:12:25;;;;;;;21.25;10.18;;;;;;;;;;6199273;28;20133;-63
2023/01/09 11:15:29;;;;;;;20.13;10.90;;;;;;;;;;6198373;28;20165;-64
2023/01/09 11:18:30;;;;;;;23.58;12.07;;;;;;;;;;6205705;28;20050;-62
2023/01/09 11:21:36;;;;;;;26.45;14.95;;;;;;;;;;6199972;28;20057;-63
2023/01/09 11:24:37;;;;;;;16.13;8.65;;;;;;;;;;6209264;28;20046;-63
2023/01/09 11:27:38;;;;;;;12.80;5.30;;;;;;;;;;6201284;28;20045;-64
2023/01/09 11:30:59;;;;;;;12.88;6.55;;;;;;;;;;6211383;28;20100;-62
2023/01/09 11:34:00;;;;;;;11.52;5.05;;;;;;;;;;6200373;28;20034;-63
2023/01/09 11:37:10;;;;;;;13.50;7.57;;;;;;;;;;6196694;28;20042;-63
2023/01/09 11:40:20;;;;;;;10.05;5.03;;;;;;;;;;6198568;28;20042;-64
2023/01/09 11:43:29;;;;;;;15.27;9.65;;;;;;;;;;6198141;28;20451;-63
2023/01/09 11:46:40;;;;;;;10.60;5.90;;;;;;;;;;6194901;28;20043;-62
2023/01/09 11:49:41;;;;;;;9.20;4.25;;;;;;;;;;6197084;28;20084;-63
2023/01/09 11:52:41;;;;;;;9.70;4.55;;;;;;;;;;6194824;28;20054;-62
2023/01/09 11:55:43;;;;;;;13.88;6.85;;;;;;;;;;6200737;28;20046;-63
2023/01/09 11:58:44;;;;;;;28.58;12.05;;;;;;;;;;6216585;28;20045;-63
2023/01/09 12:02:21;;;;;;;14.00;6.65;;;;;;;;;;6206344;28;20049;-62
2023/01/09 12:05:44;;;;;;;12.65;5.53;;;;;;;;;;6213160;28;20132;-62
2023/01/09 12:08:56;;;;;;;17.73;9.48;;;;;;;;;;6219269;28;20069;-62
2023/01/09 12:12:07;;;;;;;16.42;8.48;;;;;;;;;;6220766;28;20046;-62
2023/01/09 12:15:34;;;;;;;23.38;12.60;;;;;;;;;;6204576;28;20046;-61
2023/01/09 12:18:52;;;;;;;22.33;13.95;;;;;;;;;;6200377;28;20060;-64
2023/01/09 12:22:21;;;;;;;9.75;5.00;;;;;;;;;;6198913;28;20077;-63
2023/01/09 12:25:33;;;;;;;8.63;3.97;;;;;;;;;;6199762;28;20608;-62
2023/01/09 12:28:34;;;;;;;8.93;4.18;;;;;;;;;;6198503;28;20050;-63
2023/01/09 12:31:37;;;;;;;26.65;16.98;;;;;;;;;;6200555;28;20112;-62
2023/01/09 12:34:44;;;;;;;18.60;11.23;;;;;;;;;;6200409;28;20166;-63
2023/01/09 12:37:52;;;;;;;18.67;10.93;;;;;;;;;;6198177;28;20042;-61
2023/01/09 12:40:58;;;;;;;43.83;25.40;;;;;;;;;;6197190;28;20092;-63
2023/01/09 12:44:30;;;;;;;50.38;31.08;;;;;;;;;;6207261;28;20489;-63
2023/01/09 12:47:47;;;;;;;26.60;13.95;;;;;;;;;;6217557;28;20141;-63
2023/01/09 12:51:25;;;;;;;83.45;42.08;;;;;;;;;;6220020;28;20068;-63
2023/01/09 12:54:42;;;;;;;100.13;48.35;;;;;;;;;;6220041;28;20042;-62
2023/01/09 12:57:48;;;;;;;28.98;14.88;;;;;;;;;;6202980;28;20050;-64
2023/01/09 13:00:53;;;;;;;25.73;14.27;;;;;;;;;;6199013;28;20694;-64
2023/01/09 13:04:11;;;;;;;42.95;25.35;;;;;;;;;;6199214;28;20073;-64
2023/01/09 13:07:42;;;;;;;43.38;20.88;;;;;;;;;;6198627;28;20045;-62
2023/01/09 13:10:50;;;;;;;37.78;17.92;;;;;;;;;;6196030;28;20050;-61
2023/01/09 13:14:02;;;;;;;39.55;16.52;;;;;;;;;;6197583;28;20038;-63
2023/01/09 13:17:03;;;;;;;62.60;30.17;;;;;;;;;;6197478;28;20046;-62
2023/01/09 13:20:31;;;;;;;70.55;29.30;;;;;;;;;;6200573;28;20047;-64
2023/01/09 13:23:53;;;;;;;71.20;32.70;;;;;;;;;;6198250;28;20038;-61
2023/01/09 13:27:00;;;;;;;44.80;21.30;;;;;;;;;;6199071;28;20049;-62
2023/01/09 13:30:26;;;;;;;26.00;13.10;;;;;;;;;;6199924;28;20046;-62
2023/01/09 13:33:30;;;;;;;19.92;9.07;;;;;;;;;;6198078;28;20056;-63
2023/01/09 13:36:35;;;;;;;18.60;9.02;;;;;;;;;;6199182;28;20056;-63
2023/01/09 13:39:36;;;;;;;21.75;12.82;;;;;;;;;;6199727;28;20056;-62
2023/01/09 13:42:38;;;;;;;17.75;10.30;;;;;;;;;;6213868;28;20042;-63
2023/01/09 13:45:39;;;;;;;12.10;5.10;;;;;;;;;;6207085;28;21164;-64
2023/01/09 13:48:40;;;;;;;12.15;5.53;;;;;;;;;;6199637;28;20133;-63
2023/01/09 13:51:41;;;;;;;12.18;5.05;;;;;;;;;;6198696;28;20489;-64
2023/01/09 13:55:00;;;;;;;12.80;5.65;;;;;;;;;;6198630;28;20046;-64
2023/01/09 13:58:04;;;;;;;11.50;5.40;;;;;;;;;;6205134;28;20142;-63
2023/01/09 14:01:23;;;;;;;15.10;6.78;;;;;;;;;;6198456;28;20046;-63
2023/01/09 14:04:40;;;;;;;13.52;5.57;;;;;;;;;;6198783;28;20046;-63
2023/01/09 14:07:42;;;;;;;13.32;6.50;;;;;;;;;;6197890;28;20046;-63
2023/01/09 14:10:42;;;;;;;13.73;6.30;;;;;;;;;;6199198;28;20046;-62
2023/01/09 14:13:44;;;;;;;14.38;6.60;;;;;;;;;;6197464;28;20042;-64
2023/01/09 14:16:45;;;;;;;12.50;6.03;;;;;;;;;;6197853;28;20552;-62
2023/01/09 14:19:55;;;;;;;24.25;14.63;;;;;;;;;;6199067;28;20066;-62
2023/01/09 14:22:57;;;;;;;12.00;5.95;;;;;;;;;;6197267;28;20137;-63
2023/01/09 14:25:58;;;;;;;13.25;6.63;;;;;;;;;;6205686;28;20046;-64
2023/01/09 14:29:30;;;;;;;13.40;6.47;;;;;;;;;;6211483;28;20034;-64
2023/01/09 14:32:42;;;;;;;11.57;5.88;;;;;;;;;;6198605;28;20085;-64
2023/01/09 14:36:13;;;;;;;12.70;6.45;;;;;;;;;;6198149;28;20146;-64
2023/01/09 14:39:15;;;;;;;21.42;12.02;;;;;;;;;;6192848;28;20448;-64
2023/01/09 14:42:22;;;;;;;18.98;9.43;;;;;;;;;;6196300;28;20092;-64
2023/01/09 14:45:25;;;;;;;15.95;8.02;;;;;;;;;;6201618;28;20035;-64
2023/01/09 14:48:27;;;;;;;23.88;14.13;;;;;;;;;;6218528;28;20499;-64
2023/01/09 14:51:31;;;;;;;15.27;8.95;;;;;;;;;;6198222;28;20456;-63
2023/01/09 14:54:40;;;;;;;17.38;8.15;;;;;;;;;;6198200;28;20114;-64
2023/01/09 14:57:41;;;;;;;15.52;6.22;;;;;;;;;;6196108;28;22308;-62
2023/01/09 15:00:47;;;;;;;17.83;6.78;;;;;;;;;;6197318;28;20052;-63
2023/01/09 15:03:57;;;;;;;15.88;7.15;;;;;;;;;;6197154;28;20081;-64
2023/01/09 15:06:58;;;;;;;16.98;6.93;;;;;;;;;;6198024;28;20042;-64
2023/01/09 15:10:01;;;;;;;14.27;6.90;;;;;;;;;;6198201;28;20814;-64
2023/01/09 15:13:06;;;;;;;16.25;8.07;;;;;;;;;;6199013;28;20046;-62
2023/01/09 15:16:21;;;;;;;17.63;7.63;;;;;;;;;;6195286;28;21232;-63
2023/01/09 15:19:22;;;;;;;16.52;7.70;;;;;;;;;;6195671;28;20469;-62
2023/01/09 15:22:27;;;;;;;18.40;8.23;;;;;;;;;;6199236;28;20042;-64
2023/01/09 15:25:31;;;;;;;19.08;8.90;;;;;;;;;;6199525;28;20042;-62
2023/01/09 15:28:32;;;;;;;17.35;8.48;;;;;;;;;;6191176;28;20046;-62
2023/01/09 15:31:33;;;;;;;18.90;8.50;;;;;;;;;;6199646;28;20870;-62
2023/01/09 15:34:33;;;;;;;20.67;9.27;;;;;;;;;;6194000;28;20140;-63
2023/01/09 15:37:36;;;;;;;19.13;9.40;;;;;;;;;;6193985;28;20046;-62
2023/01/09 15:40:37;;;;;;;20.00;9.45;;;;;;;;;;6199525;28;20050;-59
2023/01/09 15:43:41;;;;;;;20.88;10.15;;;;;;;;;;6204815;28;20072;-62
2023/01/09 15:46:45;;;;;;;22.85;9.63;;;;;;;;;;6208374;28;20054;-60
2023/01/09 15:49:46;;;;;;;21.88;9.77;;;;;;;;;;6201185;28;20058;-57
2023/01/09 15:52:48;;;;;;;20.50;10.07;;;;;;;;;;6209778;28;20428;-62
2023/01/09 15:56:10;;;;;;;25.98;12.13;;;;;;;;;;6208339;28;20661;-63
2023/01/09 15:59:26;;;;;;;20.30;9.87;;;;;;;;;;6209044;28;20046;-62
2023/01/09 16:06:04;;;;;;;31.92;17.55;;;;;;;;;;6209679;28;20050;-61
2023/01/09 16:09:14;;;;;;;54.58;27.77;;;;;;;;;;6211608;28;20140;-62
2023/01/09 16:12:23;;;;;;;37.42;21.75;;;;;;;;;;6210087;28;20060;-62
2023/01/09 16:15:24;;;;;;;26.92;13.75;;;;;;;;;;6210703;28;20049;-62
2023/01/09 16:18:29;;;;;;;27.33;12.43;;;;;;;;;;6208290;28;20050;-62
2023/01/09 16:21:35;;;;;;;31.83;15.18;;;;;;;;;;6210553;28;20175;-65
2023/01/09 16:24:38;;;;;;;26.02;12.00;;;;;;;;;;6206688;28;20129;-64
2023/01/09 16:27:39;;;;;;;26.85;11.70;;;;;;;;;;6207623;28;20107;-62
2023/01/09 16:31:18;;;;;;;23.83;11.88;;;;;;;;;;6208137;28;20041;-61
2023/01/09 16:34:23;;;;;;;47.03;16.00;;;;;;;;;;6198770;28;20140;-62
2023/01/09 16:37:25;;;;;;;43.70;16.77;;;;;;;;;;6206924;28;20054;-61
2023/01/09 16:40:28;;;;;;;31.40;14.02;;;;;;;;;;6208241;28;20100;-62
2023/01/09 16:43:29;;;;;;;26.00;13.32;;;;;;;;;;6205511;28;20420;-60
2023/01/09 16:46:31;;;;;;;30.05;13.43;;;;;;;;;;6208100;28;20125;-61
2023/01/09 16:49:32;;;;;;;36.63;16.35;;;;;;;;;;6207173;28;20527;-61
2023/01/09 16:52:32;;;;;;;38.15;16.70;;;;;;;;;;6212790;28;20046;-61
2023/01/09 16:55:33;;;;;;;37.65;16.95;;;;;;;;;;6203233;28;20053;-61
2023/01/09 16:58:34;;;;;;;39.42;17.17;;;;;;;;;;6205265;28;20083;-61
2023/01/09 17:01:35;;;;;;;40.05;17.85;;;;;;;;;;6208594;28;20516;-61
2023/01/09 17:04:36;;;;;;;41.08;18.45;;;;;;;;;;6205954;28;20053;-60
2023/01/09 17:07:39;;;;;;;48.00;19.70;;;;;;;;;;6203222;28;20057;-61
2023/01/09 17:10:40;;;;;;;43.10;19.83;;;;;;;;;;6205026;28;21026;-60
2023/01/09 17:13:41;;;;;;;42.38;19.67;;;;;;;;;;6203774;28;20050;-61
2023/01/09 17:16:44;;;;;;;45.13;20.33;;;;;;;;;;6201289;28;20385;-61
2023/01/09 17:19:45;;;;;;;50.60;21.23;;;;;;;;;;6201510;28;20081;-61
2023/01/09 17:22:46;;;;;;;45.05;20.88;;;;;;;;;;6200565;28;20095;-60
2023/01/09 17:29:09;;;;;;;41.70;18.75;;;;;;;;;;6208482;28;20160;-61
2023/01/09 17:32:17;;;;;;;39.72;18.58;;;;;;;;;;6209860;28;20619;-60
2023/01/09 17:35:17;;;;;;;42.78;19.45;;;;;;;;;;6206534;28;20096;-61
2023/01/09 17:38:18;;;;;;;46.72;20.58;;;;;;;;;;6211424;28;20045;-60
2023/01/09 17:41:23;;;;;;;46.45;20.65;;;;;;;;;;6214187;28;20891;-60
2023/01/09 17:44:25;;;;;;;45.05;19.90;;;;;;;;;;6213047;28;20104;-61
2023/01/09 17:47:25;;;;;;;40.45;18.88;;;;;;;;;;6211935;28;20064;-61
2023/01/09 17:50:29;;;;;;;45.67;19.63;;;;;;;;;;6210939;28;20057;-61
2023/01/09 17:53:30;;;;;;;47.67;21.05;;;;;;;;;;6210420;28;20054;-61
2023/01/09 17:56:33;;;;;;;41.67;19.38;;;;;;;;;;6189412;28;21128;-61
2023/01/09 17:59:34;;;;;;;49.03;19.73;;;;;;;;;;6212718;28;20810;-61
2023/01/09 18:02:35;;;;;;;41.50;18.30;;;;;;;;;;6210962;28;20050;-61
2023/01/09 18:05:36;;;;;;;40.93;18.63;;;;;;;;;;6211379;28;20652;-63
2023/01/09 18:08:38;;;;;;;43.95;20.10;;;;;;;;;;6215885;28;20049;-62
2023/01/09 18:11:39;;;;;;;63.17;25.17;;;;;;;;;;6204769;28;20042;-61
2023/01/09 18:14:40;;;;;;;79.38;28.55;;;;;;;;;;6213597;28;20049;-62